This is the latest recevied weather packets stored in our database for station/object KB9PVH-3. If no packets are shown the sender has not sent any weather packets the latest 10 day(s).
| Time | Temp. | Humidity | Pressure | Rain* | Wind** | Luminosity | Snow |
|---|---|---|---|---|---|---|---|
| 1777729199 | 7.22° C | 68% | 1021.2 hPa | 0 mm | - | - | - |
| 1777728149 | 6.11° C | 73% | 1021.3 hPa | 0 mm | - | - | - |
| 1777727099 | 5.56° C | 76% | 1021.1 hPa | 0 mm | - | - | - |
| 1777726049 | 3.89° C | 81% | 1021.4 hPa | 0 mm | - | - | - |
| 1777724999 | 3.33° C | 83% | 1021.2 hPa | 0 mm | - | - | - |
| 1777723949 | 1.67° C | 87% | 1021.2 hPa | 0 mm | - | - | - |
| 1777722899 | 0.56° C | 89% | 1021.1 hPa | 0 mm | - | - | - |
| 1777721849 | 0° C | 92% | 1021 hPa | 0 mm | - | - | - |
| 1777720799 | 0° C | 93% | 1021 hPa | 0 mm | - | - | - |
| 1777719749 | -0.56° C | 93% | 1021.2 hPa | 0 mm | - | - | - |
| 1777718699 | -0.56° C | 93% | 1020.9 hPa | 0 mm | - | - | - |
| 1777717649 | -0.56° C | 93% | 1020.9 hPa | 0 mm | - | - | - |
| 1777716599 | -0.56° C | 92% | 1020.8 hPa | 0 mm | - | - | - |
| 1777715549 | -0.56° C | 91% | 1020.8 hPa | 0 mm | - | - | - |
| 1777714499 | -0.56° C | 90% | 1020.8 hPa | 0 mm | - | - | - |
| 1777713449 | -0.56° C | 90% | 1020.9 hPa | 0 mm | - | - | - |
| 1777712399 | 0° C | 89% | 1020.6 hPa | 0 mm | - | - | - |
| 1777711378 | 0° C | 89% | 1020.7 hPa | 0 mm | - | - | - |
| 1777710328 | -0.56° C | 89% | 1020.8 hPa | 0 mm | - | - | - |
| 1777709278 | -0.56° C | 85% | 1020.8 hPa | 0 mm | - | - | - |
| 1777708230 | 0° C | 83% | 1020.7 hPa | 0 mm | - | - | - |
| 1777707178 | 0° C | 90% | 1020.8 hPa | 0 mm | - | - | - |
| 1777706128 | 0° C | 85% | 1020.7 hPa | 0 mm | - | - | - |
| 1777705078 | 0° C | 85% | 1020.8 hPa | 0 mm | - | - | - |
| 1777704028 | 0.56° C | 79% | 1020.8 hPa | 0 mm | - | - | - |
* Rain latest hour (hover to see other rain measurements)
** Current wind speed in m/s (hover to see current wind gust speed)